Time;durP1;ratioP1;P1;durP2;ratioP2;P2;SDS_P1;SDS_P2;PMS_P1;PMS_P2;Temp;Humidity;BMP_temperature;BMP_pressure;BME280_temperature;BME280_humidity;BME280_pressure;Samples;Min_cycle;Max_cycle;Signal;HPM_P1;HPM_P2
2022/06/28 00:00:12;;;;;;;;;;;;;;;22.56;87.72;100704.66;10590091;28;19973;-68
2022/06/28 00:05:36;;;;;;;;;;;;;;;22.45;90.62;100721.06;10590590;28;19935;-66
2022/06/28 00:10:41;;;;;;;;;;;;;;;22.42;89.84;100720.38;10589285;28;19923;-67
2022/06/28 00:21:14;;;;;;;;;;;;;;;22.34;90.71;100731.38;10564519;28;19935;-68
2022/06/28 00:26:17;;;;;;;;;;;;;;;22.25;92.56;100731.84;10588385;28;19928;-67
2022/06/28 00:31:25;;;;;;;;;;;;;;;22.18;93.63;100748.97;10588298;28;19951;-65
2022/06/28 00:36:28;;;;;;;;;;;;;;;22.14;93.53;100747.41;10588184;28;19923;-68
2022/06/28 00:41:31;;;;;;;;;;;;;;;22.12;93.63;100748.44;10587690;28;20350;-67
2022/06/28 00:46:35;;;;;;;;;;;;;;;22.10;93.37;100748.50;10587885;28;19924;-69
2022/06/28 00:51:39;;;;;;;;;;;;;;;22.04;95.06;100742.69;10587503;28;19924;-67
2022/06/28 00:56:42;;;;;;;;;;;;;;;22.02;96.02;100744.56;10587871;28;19934;-65
2022/06/28 01:01:46;;;;;;;;;;;;;;;21.94;95.12;100744.94;10587097;28;19924;-65
2022/06/28 01:06:49;;;;;;;;;;;;;;;21.93;97.67;100751.16;10586938;28;19924;-66
2022/06/28 01:11:52;;;;;;;;;;;;;;;21.90;95.59;100746.00;10586571;28;19923;-68
2022/06/28 01:16:57;;;;;;;;;;;;;;;21.79;96.09;100748.34;10586560;28;19934;-67
2022/06/28 01:22:00;;;;;;;;;;;;;;;21.76;96.83;100751.13;10586081;28;19924;-66
2022/06/28 01:27:05;;;;;;;;;;;;;;;21.73;97.43;100749.47;10586091;28;20032;-67
2022/06/28 01:32:08;;;;;;;;;;;;;;;21.70;100.00;100740.84;10586126;28;19927;-64
2022/06/28 01:37:12;;;;;;;;;;;;;;;21.60;100.00;100742.22;10586188;28;19923;-65
2022/06/28 01:42:16;;;;;;;;;;;;;;;21.54;100.00;100759.22;10585679;28;19924;-66
2022/06/28 01:47:20;;;;;;;;;;;;;;;21.47;100.00;100762.22;10585634;28;19950;-65
2022/06/28 01:52:23;;;;;;;;;;;;;;;21.47;100.00;100759.59;10585466;28;19930;-66
2022/06/28 01:57:29;;;;;;;;;;;;;;;21.42;100.00;100754.53;10584751;28;20233;-65
2022/06/28 02:02:32;;;;;;;;;;;;;;;21.44;100.00;100752.69;10584883;28;19928;-66
2022/06/28 02:07:35;;;;;;;;;;;;;;;21.42;100.00;100740.47;10585100;28;19924;-66
2022/06/28 02:12:39;;;;;;;;;;;;;;;21.30;99.71;100735.78;10584235;28;20059;-67
2022/06/28 02:17:43;;;;;;;;;;;;;;;21.29;100.00;100737.59;10584938;28;19949;-66
2022/06/28 02:22:46;;;;;;;;;;;;;;;21.26;100.00;100735.06;10584579;28;19924;-68
2022/06/28 02:27:51;;;;;;;;;;;;;;;21.29;100.00;100739.34;10584839;28;19928;-65
2022/06/28 02:32:54;;;;;;;;;;;;;;;21.31;100.00;100743.63;10585282;28;19924;-67
2022/06/28 02:43:19;;;;;;;;;;;;;;;21.25;99.21;100764.19;10584296;28;20334;-67
2022/06/28 02:48:22;;;;;;;;;;;;;;;21.18;100.00;100760.13;10584218;28;19924;-66
2022/06/28 02:53:25;;;;;;;;;;;;;;;21.12;100.00;100768.34;10584140;28;19930;-65
2022/06/28 02:58:29;;;;;;;;;;;;;;;21.11;100.00;100769.25;10584356;28;19924;-66
2022/06/28 03:03:32;;;;;;;;;;;;;;;21.11;100.00;100764.84;10584045;28;19924;-67
2022/06/28 03:08:35;;;;;;;;;;;;;;;20.98;100.00;100769.00;10583781;28;20366;-66
2022/06/28 03:13:40;;;;;;;;;;;;;;;20.93;100.00;100765.69;10584024;28;19923;-70
2022/06/28 03:18:42;;;;;;;;;;;;;;;20.96;100.00;100762.03;10583660;28;19928;-67
2022/06/28 03:23:45;;;;;;;;;;;;;;;20.99;100.00;100765.41;10588893;28;19924;-65
2022/06/28 03:28:50;;;;;;;;;;;;;;;21.01;100.00;100760.06;10590927;28;20361;-67
2022/06/28 03:33:53;;;;;;;;;;;;;;;20.99;100.00;100775.09;10591034;28;19924;-65
2022/06/28 03:38:56;;;;;;;;;;;;;;;21.07;100.00;100759.78;10590644;28;20289;-66
2022/06/28 03:44:00;;;;;;;;;;;;;;;21.10;100.00;100760.50;10590180;28;19924;-64
2022/06/28 03:49:03;;;;;;;;;;;;;;;21.12;100.00;100771.00;10590034;28;19923;-66
2022/06/28 03:54:06;;;;;;;;;;;;;;;21.19;100.00;100759.22;10589911;28;19930;-65
2022/06/28 03:59:11;;;;;;;;;;;;;;;21.24;100.00;100755.44;10589628;28;19924;-65
2022/06/28 04:04:14;;;;;;;;;;;;;;;21.24;100.00;100763.34;10589592;28;19934;-66
2022/06/28 04:09:18;;;;;;;;;;;;;;;21.25;100.00;100757.13;10589474;28;19951;-67
2022/06/28 04:14:25;;;;;;;;;;;;;;;21.35;100.00;100758.41;10589468;28;20338;-66
2022/06/28 04:19:28;;;;;;;;;;;;;;;21.43;100.00;100761.50;10588824;28;19923;-67
2022/06/28 04:24:31;;;;;;;;;;;;;;;21.41;100.00;100758.13;10588881;28;20307;-67
2022/06/28 04:29:35;;;;;;;;;;;;;;;21.43;100.00;100750.13;10588508;28;19934;-68
2022/06/28 04:34:38;;;;;;;;;;;;;;;21.52;100.00;100749.66;10238706;27;10000290;-65
2022/06/28 04:39:41;;;;;;;;;;;;;;;21.63;100.00;100740.28;10598340;27;19945;-64
2022/06/28 04:44:46;;;;;;;;;;;;;;;21.69;100.00;100737.31;10584751;28;20350;-63
2022/06/28 04:49:49;;;;;;;;;;;;;;;21.84;100.00;100740.19;10584121;27;19924;-63
2022/06/28 04:54:52;;;;;;;;;;;;;;;21.92;100.00;100724.81;10564854;28;19925;-58
2022/06/28 04:59:56;;;;;;;;;;;;;;;22.00;100.00;100710.25;10546925;28;19923;-62
2022/06/28 05:04:59;;;;;;;;;;;;;;;22.08;100.00;100702.78;10583700;28;20362;-61
2022/06/28 05:10:03;;;;;;;;;;;;;;;22.22;100.00;100694.13;10584015;28;20015;-61
2022/06/28 05:15:08;;;;;;;;;;;;;;;22.34;99.21;100697.00;10583233;28;19924;-62
2022/06/28 05:20:12;;;;;;;;;;;;;;;22.51;98.14;100686.34;10578095;28;19934;-66
2022/06/28 05:25:15;;;;;;;;;;;;;;;22.71;96.54;100678.22;10540897;28;19924;-63
2022/06/28 05:30:20;;;;;;;;;;;;;;;22.79;97.18;100672.50;10541061;28;19924;-64
2022/06/28 05:35:23;;;;;;;;;;;;;;;22.95;94.90;100664.56;10567649;27;19923;-61
2022/06/28 05:40:26;;;;;;;;;;;;;;;23.11;93.56;100670.72;10620584;27;19934;-65
2022/06/28 05:45:30;;;;;;;;;;;;;;;23.24;92.27;100662.00;10582342;28;19924;-61
2022/06/28 05:50:33;;;;;;;;;;;;;;;23.34;92.47;100673.78;10582132;28;19932;-61
2022/06/28 05:55:36;;;;;;;;;;;;;;;23.51;91.02;100663.06;10582185;28;19973;-61
2022/06/28 06:00:40;;;;;;;;;;;;;;;23.65;89.42;100668.41;10581703;28;19955;-64
2022/06/28 06:05:43;;;;;;;;;;;;;;;23.83;88.26;100672.63;10598244;27;19924;-65
2022/06/28 06:10:46;;;;;;;;;;;;;;;23.89;87.40;100668.75;10581390;28;19924;-65
2022/06/28 06:15:50;;;;;;;;;;;;;;;23.99;87.66;100673.44;10581716;28;19924;-61
2022/06/28 06:20:53;;;;;;;;;;;;;;;24.04;88.01;100675.81;10581324;28;19942;-68
2022/06/28 06:25:57;;;;;;;;;;;;;;;24.16;88.01;100663.63;10581069;28;20350;-64
2022/06/28 06:31:01;;;;;;;;;;;;;;;24.31;87.90;100668.84;10581307;28;19928;-62
2022/06/28 06:36:04;;;;;;;;;;;;;;;24.44;87.02;100672.44;10581315;28;19923;-62
2022/06/28 06:41:07;;;;;;;;;;;;;;;24.57;85.25;100665.44;10578869;28;20384;-64
2022/06/28 06:46:12;;;;;;;;;;;;;;;24.66;84.35;100672.78;10539269;28;19924;-61
2022/06/28 06:51:15;;;;;;;;;;;;;;;24.69;84.87;100664.69;10539327;28;19924;-59
2022/06/28 06:56:18;;;;;;;;;;;;;;;24.69;85.85;100670.00;10540556;28;19927;-61
2022/06/28 07:01:22;;;;;;;;;;;;;;;24.91;82.97;100674.78;10546687;28;19931;-62
2022/06/28 07:06:45;;;;;;;;;;;;;;;25.11;79.93;100671.69;10547047;28;19973;-63
2022/06/28 07:11:48;;;;;;;;;;;;;;;25.14;80.00;100666.19;10546383;28;20643;-61
2022/06/28 07:16:52;;;;;;;;;;;;;;;25.23;80.02;100668.22;10546122;28;19924;-66
2022/06/28 07:21:55;;;;;;;;;;;;;;;25.32;80.08;100662.31;10546102;28;19931;-68
2022/06/28 07:26:59;;;;;;;;;;;;;;;25.36;80.57;100662.97;10546016;28;19924;-68
2022/06/28 07:32:03;;;;;;;;;;;;;;;25.49;79.50;100670.06;10545412;28;20259;-67
2022/06/28 07:37:06;;;;;;;;;;;;;;;25.48;79.46;100672.81;10601201;27;19923;-70
2022/06/28 07:42:09;;;;;;;;;;;;;;;25.55;79.88;100672.31;10626322;27;19987;-68
2022/06/28 07:47:13;;;;;;;;;;;;;;;25.57;80.50;100664.25;10587342;28;19934;-67
2022/06/28 07:52:34;;;;;;;;;;;;;;;25.98;75.58;100665.81;10586837;28;20290;-65
2022/06/28 07:57:38;;;;;;;;;;;;;;;26.21;73.50;100665.06;10586668;28;19969;-65
2022/06/28 08:02:43;;;;;;;;;;;;;;;26.26;73.36;100670.09;10586541;28;19924;-67
2022/06/28 08:07:47;;;;;;;;;;;;;;;26.30;75.00;100668.06;10585314;28;20272;-67
2022/06/28 08:12:50;;;;;;;;;;;;;;;26.13;75.90;100663.91;10585927;28;20014;-67
2022/06/28 08:17:55;;;;;;;;;;;;;;;26.46;71.21;100666.88;10586423;28;19928;-67
2022/06/28 08:22:58;;;;;;;;;;;;;;;26.68;69.29;100656.44;10585678;28;19924;-64
2022/06/28 08:28:01;;;;;;;;;;;;;;;26.57;68.59;100666.13;10585205;28;20252;-64
2022/06/28 08:33:05;;;;;;;;;;;;;;;26.95;65.42;100667.78;10585640;28;19924;-70
2022/06/28 08:38:08;;;;;;;;;;;;;;;27.05;64.17;100671.47;10585042;28;19927;-66
2022/06/28 08:43:11;;;;;;;;;;;;;;;27.09;66.56;100662.25;10584118;28;19932;-65
2022/06/28 08:48:21;;;;;;;;;;;;;;;27.28;63.71;100656.44;10584679;28;20277;-67
2022/06/28 08:53:24;;;;;;;;;;;;;;;27.34;63.75;100668.53;10583913;28;19927;-67
2022/06/28 08:58:28;;;;;;;;;;;;;;;27.54;62.56;100673.19;10584013;28;20238;-65
2022/06/28 09:03:34;;;;;;;;;;;;;;;27.65;60.76;100659.88;10583576;28;19924;-66
2022/06/28 09:08:38;;;;;;;;;;;;;;;27.91;59.02;100667.66;10583695;28;19949;-66
2022/06/28 09:13:42;;;;;;;;;;;;;;;28.11;58.72;100660.78;10583720;28;19931;-67
2022/06/28 09:18:47;;;;;;;;;;;;;;;28.21;57.58;100648.41;10583260;28;20481;-68
2022/06/28 09:23:52;;;;;;;;;;;;;;;28.27;57.13;100648.78;10582868;28;19938;-67
2022/06/28 09:28:55;;;;;;;;;;;;;;;28.42;56.21;100633.38;10584041;28;19924;-64
2022/06/28 09:34:07;;;;;;;;;;;;;;;28.43;56.32;100632.38;10582918;28;20379;-68
2022/06/28 09:39:10;;;;;;;;;;;;;;;28.76;56.74;100628.84;10585831;28;19924;-66
2022/06/28 09:44:13;;;;;;;;;;;;;;;28.88;56.30;100618.03;10585517;28;19930;-70
2022/06/28 09:49:18;;;;;;;;;;;;;;;29.14;54.42;100615.91;10585198;28;19934;-67
2022/06/28 09:54:21;;;;;;;;;;;;;;;29.40;55.20;100631.50;10584677;28;20010;-66
2022/06/28 09:59:26;;;;;;;;;;;;;;;30.03;52.89;100624.38;10585242;28;19928;-69
2022/06/28 10:04:31;;;;;;;;;;;;;;;30.75;51.78;100611.69;10585049;28;19924;-67
2022/06/28 10:09:34;;;;;;;;;;;;;;;30.66;53.01;100599.97;10584817;28;19924;-66
2022/06/28 10:20:00;;;;;;;;;;;;;;;31.74;52.47;100609.69;10584882;28;19923;-65
2022/06/28 10:25:13;;;;;;;;;;;;;;;32.27;50.82;100600.06;10583874;28;20035;-66
2022/06/28 10:30:20;;;;;;;;;;;;;;;33.24;46.97;100604.78;10241564;27;9999756;-65
2022/06/28 10:35:42;;;;;;;;;;;;;;;33.32;46.66;100611.06;10624040;27;19923;-66
2022/06/28 10:40:49;;;;;;;;;;;;;;;33.89;47.52;100601.63;10589673;28;20358;-66
2022/06/28 10:46:08;;;;;;;;;;;;;;;33.98;47.28;100597.16;10589052;28;20262;-70
2022/06/28 10:51:11;;;;;;;;;;;;;;;34.30;45.54;100583.84;10589618;28;20372;-65
2022/06/28 10:56:19;;;;;;;;;;;;;;;34.97;44.47;100583.78;10588843;28;20269;-68
2022/06/28 11:01:38;;;;;;;;;;;;;;;34.97;46.23;100580.22;10589431;28;19924;-64
2022/06/28 11:06:41;;;;;;;;;;;;;;;35.23;45.08;100595.28;10588089;28;20383;-67
2022/06/28 11:11:59;;;;;;;;;;;;;;;35.76;44.37;100587.53;10588470;28;19923;-67
2022/06/28 11:17:13;;;;;;;;;;;;;;;35.83;42.69;100582.25;10587689;28;20011;-65
2022/06/28 11:22:16;;;;;;;;;;;;;;;36.23;42.98;100576.78;10587865;28;19924;-66
2022/06/28 11:27:22;;;;;;;;;;;;;;;36.93;42.95;100575.78;10587159;28;19924;-67
2022/06/28 11:32:29;;;;;;;;;;;;;;;36.98;39.77;100583.41;10587343;28;20343;-66
2022/06/28 11:37:34;;;;;;;;;;;;;;;36.76;40.85;100565.25;10569213;28;19931;-67
2022/06/28 11:42:37;;;;;;;;;;;;;;;35.96;40.26;100564.56;10544771;28;19924;-66
2022/06/28 11:47:42;;;;;;;;;;;;;;;35.37;42.55;100574.84;10544742;28;19924;-68
2022/06/28 11:52:50;;;;;;;;;;;;;;;35.82;42.92;100570.63;10545563;28;20331;-65
2022/06/28 11:58:08;;;;;;;;;;;;;;;34.88;41.94;100568.53;10544628;28;20307;-67
2022/06/28 12:03:12;;;;;;;;;;;;;;;34.76;43.60;100575.25;10546784;28;19924;-67
2022/06/28 12:08:15;;;;;;;;;;;;;;;34.32;44.87;100568.34;10547239;28;19928;-63
2022/06/28 12:13:18;;;;;;;;;;;;;;;34.13;47.20;100573.97;10547302;28;19924;-66
2022/06/28 12:18:22;;;;;;;;;;;;;;;33.98;45.60;100576.41;10546635;28;20377;-70
2022/06/28 12:23:25;;;;;;;;;;;;;;;33.35;47.56;100573.06;10546381;28;20027;-68
2022/06/28 12:28:28;;;;;;;;;;;;;;;33.00;46.94;100575.75;10546344;28;19940;-64
2022/06/28 12:33:33;;;;;;;;;;;;;;;32.76;46.95;100575.47;10546123;28;19947;-66
2022/06/28 12:38:36;;;;;;;;;;;;;;;32.77;46.07;100577.19;10545823;28;19924;-66
2022/06/28 12:43:39;;;;;;;;;;;;;;;32.88;45.37;100558.13;10545714;28;19930;-66
2022/06/28 12:48:44;;;;;;;;;;;;;;;32.93;47.50;100557.72;10545505;28;19924;-69
2022/06/28 12:53:47;;;;;;;;;;;;;;;32.69;49.59;100552.88;10544781;28;20246;-65
2022/06/28 12:58:50;;;;;;;;;;;;;;;33.18;48.18;100549.72;10545201;28;19924;-65
2022/06/28 13:03:54;;;;;;;;;;;;;;;33.88;47.35;100547.88;10545044;28;20319;-67
2022/06/28 13:08:57;;;;;;;;;;;;;;;32.80;50.89;100544.59;10544864;28;19930;-63
2022/06/28 13:14:00;;;;;;;;;;;;;;;32.08;50.91;100536.47;10544597;28;19924;-63
2022/06/28 13:19:05;;;;;;;;;;;;;;;32.11;51.01;100528.16;10544357;28;19986;-65
2022/06/28 13:24:08;;;;;;;;;;;;;;;31.57;58.16;100523.50;10544238;28;20335;-68
2022/06/28 13:29:11;;;;;;;;;;;;;;;26.75;100.00;100535.16;10543782;28;19930;-65
2022/06/28 13:34:16;;;;;;;;;;;;;;;26.09;100.00;100542.69;10543807;28;19942;-66
2022/06/28 13:39:19;;;;;;;;;;;;;;;26.91;89.22;100530.41;10205866;27;10000074;-63
2022/06/28 13:44:23;;;;;;;;;;;;;;;27.80;77.27;100517.31;10582067;28;20558;-65
2022/06/28 13:49:45;;;;;;;;;;;;;;;28.06;73.25;100518.81;10581654;28;20261;-66
2022/06/28 13:54:48;;;;;;;;;;;;;;;28.18;75.19;100515.16;10581958;28;20030;-64
2022/06/28 13:59:51;;;;;;;;;;;;;;;28.17;73.72;100502.75;10581763;28;19924;-65
2022/06/28 14:04:57;;;;;;;;;;;;;;;28.16;74.01;100499.22;10581589;28;20023;-69
2022/06/28 14:10:00;;;;;;;;;;;;;;;28.11;74.43;100503.28;10580762;28;19928;-67
2022/06/28 14:15:03;;;;;;;;;;;;;;;27.88;80.32;100513.06;10581528;28;19946;-65
2022/06/28 14:20:08;;;;;;;;;;;;;;;27.84;80.73;100538.28;10581251;28;19928;-64
2022/06/28 14:25:12;;;;;;;;;;;;;;;27.98;74.29;100540.75;10581272;28;20481;-65
2022/06/28 14:30:16;;;;;;;;;;;;;;;27.94;72.13;100533.13;10580868;28;19924;-65
2022/06/28 14:35:20;;;;;;;;;;;;;;;27.92;69.53;100543.06;10575750;28;19938;-63
2022/06/28 14:40:43;;;;;;;;;;;;;;;27.79;72.30;100563.63;10588743;28;20372;-64
2022/06/28 14:45:46;;;;;;;;;;;;;;;27.64;76.48;100556.81;10554937;28;19924;-69
2022/06/28 14:50:57;;;;;;;;;;;;;;;27.69;78.57;100574.19;10564166;28;19947;-65
2022/06/28 14:56:01;;;;;;;;;;;;;;;27.69;71.26;100594.66;10584453;28;19924;-64
2022/06/28 15:01:06;;;;;;;;;;;;;;;27.62;67.54;100604.09;10583483;28;20419;-64
2022/06/28 15:06:11;;;;;;;;;;;;;;;27.23;69.91;100611.44;10546382;28;19924;-65
2022/06/28 15:11:14;;;;;;;;;;;;;;;27.00;71.67;100619.47;10541354;28;20243;-64
2022/06/28 15:16:17;;;;;;;;;;;;;;;26.67;72.90;100638.75;10554895;28;19924;-66
2022/06/28 15:32:18;;;;;;;;;;;;;;;26.05;87.33;100746.09;10591256;28;19930;-64
2022/06/28 15:37:22;;;;;;;;;;;;;;;25.60;93.42;100773.06;10590533;28;20330;-67
2022/06/28 15:42:25;;;;;;;;;;;;;;;25.03;94.69;100783.78;10590135;28;19941;-65
2022/06/28 15:47:28;;;;;;;;;;;;;;;24.74;95.53;100790.06;10590257;28;19924;-69
2022/06/28 15:52:33;;;;;;;;;;;;;;;23.85;100.00;100791.84;10589940;28;19924;-63
2022/06/28 15:57:36;;;;;;;;;;;;;;;22.95;100.00;100808.41;10589982;28;20257;-66
2022/06/28 16:02:39;;;;;;;;;;;;;;;23.21;100.00;100802.53;10589983;28;20249;-66
2022/06/28 16:07:45;;;;;;;;;;;;;;;23.26;100.00;100803.16;10589607;28;19931;-64
2022/06/28 16:12:56;;;;;;;;;;;;;;;23.28;100.00;100806.59;10589707;28;19924;-64
2022/06/28 16:17:59;;;;;;;;;;;;;;;23.32;100.00;100804.63;10589146;28;19924;-64
2022/06/28 16:23:04;;;;;;;;;;;;;;;23.32;100.00;100813.44;10589082;28;19923;-65
2022/06/28 16:28:07;;;;;;;;;;;;;;;23.33;100.00;100822.25;10587800;28;20246;-64
2022/06/28 16:33:11;;;;;;;;;;;;;;;23.35;100.00;100838.94;10588388;28;19938;-67
2022/06/28 16:38:16;;;;;;;;;;;;;;;23.37;100.00;100848.47;10588562;28;20228;-64
2022/06/28 16:43:19;;;;;;;;;;;;;;;23.41;100.00;100859.78;10587784;28;19956;-64
2022/06/28 16:48:22;;;;;;;;;;;;;;;23.26;100.00;100869.41;10588068;28;19924;-63
2022/06/28 16:53:28;;;;;;;;;;;;;;;23.34;100.00;100867.22;10588100;28;19924;-66
2022/06/28 16:58:31;;;;;;;;;;;;;;;23.35;100.00;100892.75;10585982;28;20387;-64
2022/06/28 17:03:34;;;;;;;;;;;;;;;23.24;100.00;100902.19;10583989;28;19924;-63
2022/06/28 17:08:38;;;;;;;;;;;;;;;23.05;100.00;100889.06;10583868;28;19924;-62
2022/06/28 17:13:41;;;;;;;;;;;;;;;22.87;100.00;100859.13;10583749;28;19923;-62
2022/06/28 17:18:44;;;;;;;;;;;;;;;22.78;100.00;100856.94;10583497;28;19934;-63
2022/06/28 17:23:49;;;;;;;;;;;;;;;22.68;100.00;100855.72;10583269;28;20014;-66
2022/06/28 17:28:54;;;;;;;;;;;;;;;22.50;100.00;100816.09;10582735;28;19923;-68
2022/06/28 17:33:57;;;;;;;;;;;;;;;22.46;100.00;100783.66;10583123;28;19935;-65
2022/06/28 17:39:01;;;;;;;;;;;;;;;22.53;100.00;100748.00;10582611;28;19924;-60
2022/06/28 17:44:07;;;;;;;;;;;;;;;22.54;100.00;100733.84;10190741;27;10000324;-62
2022/06/28 17:49:10;;;;;;;;;;;;;;;22.53;100.00;100710.94;10539873;28;19924;-64
2022/06/28 17:54:14;;;;;;;;;;;;;;;22.54;100.00;100704.75;10539700;28;20418;-63
2022/06/28 17:59:17;;;;;;;;;;;;;;;22.64;100.00;100694.53;10539782;28;19935;-65
2022/06/28 18:04:20;;;;;;;;;;;;;;;22.74;100.00;100690.44;10539831;28;19934;-63
2022/06/28 18:09:28;;;;;;;;;;;;;;;22.73;100.00;100672.84;10539372;28;19923;-64
2022/06/28 18:14:31;;;;;;;;;;;;;;;22.70;100.00;100665.94;10539739;28;19963;-62
2022/06/28 18:19:34;;;;;;;;;;;;;;;22.64;100.00;100692.72;10539410;28;19990;-61
2022/06/28 18:24:38;;;;;;;;;;;;;;;22.67;100.00;100686.41;10539196;28;19924;-64
2022/06/28 18:29:41;;;;;;;;;;;;;;;22.72;100.00;100701.13;10549015;28;19977;-64
2022/06/28 18:34:44;;;;;;;;;;;;;;;22.70;100.00;100680.94;10539180;28;19932;-64
2022/06/28 18:39:48;;;;;;;;;;;;;;;22.67;100.00;100683.78;10547593;28;19923;-65
2022/06/28 18:44:52;;;;;;;;;;;;;;;22.63;100.00;100714.84;10581452;28;20010;-64
2022/06/28 18:49:55;;;;;;;;;;;;;;;22.53;100.00;100708.31;10580196;28;19924;-65
2022/06/28 18:55:00;;;;;;;;;;;;;;;22.43;100.00;100688.56;10586603;28;19934;-63
2022/06/28 19:00:04;;;;;;;;;;;;;;;22.38;100.00;100698.50;10589166;28;20357;-63
2022/06/28 19:05:08;;;;;;;;;;;;;;;22.35;100.00;100706.63;10550361;28;19924;-69
2022/06/28 19:10:12;;;;;;;;;;;;;;;22.23;100.00;100716.97;10546528;28;20030;-63
2022/06/28 19:15:18;;;;;;;;;;;;;;;22.18;100.00;100729.59;10546800;28;19989;-66
2022/06/28 19:20:21;;;;;;;;;;;;;;;22.14;100.00;100743.94;10546449;28;20372;-64
2022/06/28 19:25:29;;;;;;;;;;;;;;;22.11;100.00;100746.69;10546271;28;19924;-66
2022/06/28 19:30:32;;;;;;;;;;;;;;;22.14;100.00;100762.44;10545867;28;19928;-66
2022/06/28 19:35:36;;;;;;;;;;;;;;;22.06;100.00;100773.38;10545625;28;20049;-63
2022/06/28 19:40:40;;;;;;;;;;;;;;;22.05;100.00;100770.81;10567122;27;19927;-66
2022/06/28 19:45:43;;;;;;;;;;;;;;;22.05;100.00;100776.97;10629883;27;19932;-66
2022/06/28 19:50:46;;;;;;;;;;;;;;;22.00;100.00;100781.66;10629843;27;20004;-65
2022/06/28 19:55:50;;;;;;;;;;;;;;;21.97;100.00;100781.78;10629606;27;20023;-66
2022/06/28 20:00:53;;;;;;;;;;;;;;;22.01;100.00;100791.28;10629529;27;19927;-67
2022/06/28 20:05:57;;;;;;;;;;;;;;;22.07;100.00;100790.94;10630203;27;20036;-65
2022/06/28 20:11:01;;;;;;;;;;;;;;;22.04;100.00;100793.75;10628835;27;20341;-68
2022/06/28 20:16:04;;;;;;;;;;;;;;;22.04;100.00;100793.75;10629329;27;20383;-61
2022/06/28 20:21:07;;;;;;;;;;;;;;;22.03;100.00;100802.63;10628684;27;19923;-63
2022/06/28 20:26:12;;;;;;;;;;;;;;;22.02;100.00;100818.59;10628756;27;19923;-64
2022/06/28 20:31:15;;;;;;;;;;;;;;;22.05;100.00;100818.41;10627621;27;19923;-62
2022/06/28 20:36:18;;;;;;;;;;;;;;;22.05;100.00;100821.06;10627937;27;19927;-65
2022/06/28 20:46:43;;;;;;;;;;;;;;;22.03;100.00;100833.50;10584999;28;19934;-66
2022/06/28 20:51:46;;;;;;;;;;;;;;;22.05;100.00;100818.41;10585147;28;19934;-64
2022/06/28 20:56:51;;;;;;;;;;;;;;;22.07;100.00;100820.03;10584625;28;20441;-64
2022/06/28 21:01:54;;;;;;;;;;;;;;;22.01;100.00;100817.72;10582439;28;19934;-66
2022/06/28 21:06:57;;;;;;;;;;;;;;;22.02;100.00;100832.63;10554037;28;20022;-66
2022/06/28 21:12:02;;;;;;;;;;;;;;;21.89;100.00;100859.75;10559347;28;19924;-65
2022/06/28 21:17:05;;;;;;;;;;;;;;;22.02;100.00;100851.13;10582984;28;19927;-64
2022/06/28 21:22:09;;;;;;;;;;;;;;;21.94;100.00;100855.09;10583666;28;19934;-66
2022/06/28 21:27:14;;;;;;;;;;;;;;;21.93;100.00;100859.53;10583470;28;20262;-66
2022/06/28 21:32:17;;;;;;;;;;;;;;;21.94;100.00;100857.75;10582999;28;19924;-67
2022/06/28 21:37:20;;;;;;;;;;;;;;;21.85;100.00;100852.91;10583256;28;19969;-68
2022/06/28 21:42:26;;;;;;;;;;;;;;;21.91;100.00;100845.53;10582730;28;19984;-66
2022/06/28 21:47:29;;;;;;;;;;;;;;;21.84;100.00;100851.19;10583039;28;19923;-63
2022/06/28 21:52:32;;;;;;;;;;;;;;;21.86;100.00;100854.63;10583052;28;19950;-63
2022/06/28 21:57:37;;;;;;;;;;;;;;;21.90;100.00;100853.56;10582216;28;19924;-67
2022/06/28 22:02:40;;;;;;;;;;;;;;;21.91;100.00;100860.53;10581991;28;20347;-62
2022/06/28 22:07:43;;;;;;;;;;;;;;;21.87;100.00;100857.19;10582101;28;19935;-62
2022/06/28 22:12:47;;;;;;;;;;;;;;;21.89;100.00;100855.31;10582052;28;19923;-61
2022/06/28 22:17:50;;;;;;;;;;;;;;;21.88;100.00;100855.41;10582075;28;20365;-65
2022/06/28 22:22:53;;;;;;;;;;;;;;;21.92;100.00;100849.06;10581848;28;19927;-65
2022/06/28 22:27:58;;;;;;;;;;;;;;;21.91;100.00;100834.97;10584479;28;19924;-65
2022/06/28 22:33:01;;;;;;;;;;;;;;;21.94;100.00;100844.53;10590704;28;20018;-63
2022/06/28 22:38:04;;;;;;;;;;;;;;;22.00;100.00;100831.00;10590241;28;19934;-63
2022/06/28 22:43:08;;;;;;;;;;;;;;;21.93;100.00;100834.88;10621675;27;19923;-61
2022/06/28 22:48:11;;;;;;;;;;;;;;;21.93;100.00;100840.19;10632753;27;19949;-66
2022/06/28 22:53:14;;;;;;;;;;;;;;;21.94;100.00;100842.75;10632165;27;19923;-64
2022/06/28 22:58:18;;;;;;;;;;;;;;;21.95;100.00;100862.94;10631902;27;20002;-63
2022/06/28 23:03:21;;;;;;;;;;;;;;;21.97;100.00;100862.91;10631989;27;20296;-63
2022/06/28 23:08:25;;;;;;;;;;;;;;;21.93;100.00;100851.63;10631751;27;19924;-62
2022/06/28 23:13:30;;;;;;;;;;;;;;;21.88;100.00;100852.75;10631529;27;20269;-67
2022/06/28 23:18:33;;;;;;;;;;;;;;;21.87;100.00;100862.47;10631523;27;19930;-64
2022/06/28 23:23:36;;;;;;;;;;;;;;;21.88;100.00;100877.41;10631209;27;20364;-65
2022/06/28 23:28:40;;;;;;;;;;;;;;;21.86;100.00;100865.19;10631033;27;20341;-65
2022/06/28 23:33:43;;;;;;;;;;;;;;;21.76;100.00;100867.41;10630617;27;20253;-63
2022/06/28 23:38:46;;;;;;;;;;;;;;;21.73;100.00;100870.16;10630028;27;19927;-66
2022/06/28 23:43:50;;;;;;;;;;;;;;;21.70;100.00;100863.25;10592548;27;19924;-63
2022/06/28 23:48:53;;;;;;;;;;;;;;;21.70;100.00;100855.34;10587290;28;19927;-64
2022/06/28 23:59:18;;;;;;;;;;;;;;;21.61;100.00;100873.38;10587588;28;19933;-62
